Terminal Aerodrome Forecast
Issued by NWS

Home | Current Version | Previous Version | Text Only | Print | Product List | Glossary On
Versions: 1 2 3 4 5 6 7 8 9 10 11 12 13 14 15 16 17 18 19 20 21 22 23 24
000
FTAK31 PANC 231138
TAFADL
TAF
PADL 231138Z 2312/2412 04007KT P6SM OVC150
     FM231800 04010KT P6SM VCSH BKN035
     FM232100 04015KT 6SM -RA OVC022
     FM240000 04015KT 4SM -RA OVC012 WS020/10040KT
     FM240900 09010KT 5SM -RA BR OVC008
      AMD LTD TO CLD VIS AND WIND TIL 231600=

USA.gov is the U.S. government's official web portal to all federal, state and local government web resources and services.